createdAt,value
2018-12-27T00:01:13.821Z,21.70
2018-12-27T00:03:41.487Z,21.73
2018-12-27T00:06:09.458Z,21.67
2018-12-27T00:08:36.961Z,21.76
2018-12-27T00:11:04.635Z,21.75
2018-12-27T00:13:32.387Z,21.80
2018-12-27T00:16:00.234Z,21.80
2018-12-27T00:18:28.477Z,21.80
2018-12-27T00:20:56.039Z,21.72
2018-12-27T00:23:23.484Z,21.68
2018-12-27T00:25:50.744Z,21.66
2018-12-27T00:28:17.596Z,21.62
2018-12-27T00:30:45.464Z,21.63
2018-12-27T00:33:13.437Z,21.63
2018-12-27T00:35:42.334Z,21.59
2018-12-27T00:38:09.819Z,21.66
2018-12-27T00:40:38.243Z,21.73
2018-12-27T00:43:06.443Z,21.76
2018-12-27T00:45:33.991Z,21.70
2018-12-27T00:48:01.628Z,21.68
2018-12-27T00:50:28.860Z,21.77
2018-12-27T00:52:56.833Z,21.80
2018-12-27T00:55:24.384Z,21.74
2018-12-27T00:57:52.386Z,21.73
2018-12-27T01:00:19.988Z,21.75
2018-12-27T01:02:47.518Z,21.75
2018-12-27T01:05:15.783Z,21.78
2018-12-27T01:07:42.738Z,21.74
2018-12-27T01:12:03.430Z,21.81
2018-12-27T01:14:31.380Z,21.81
2018-12-27T01:16:58.881Z,21.71
2018-12-27T01:19:26.883Z,21.79
2018-12-27T01:21:54.796Z,21.79
2018-12-27T01:24:22.344Z,21.77
2018-12-27T01:26:49.967Z,21.74
2018-12-27T01:29:17.254Z,21.69
2018-12-27T01:31:50.575Z,21.88
2018-12-27T01:34:14.500Z,21.78
2018-12-27T01:36:42.438Z,21.66
2018-12-27T01:39:11.439Z,21.68
2018-12-27T01:41:39.910Z,21.67
2018-12-27T01:44:07.328Z,21.62
2018-12-27T01:46:34.743Z,21.59
2018-12-27T01:49:01.961Z,21.50
2018-12-27T01:51:30.431Z,21.47
2018-12-27T01:53:57.605Z,21.45
2018-12-27T01:56:24.819Z,21.48
2018-12-27T01:58:52.244Z,21.43
2018-12-27T02:01:19.771Z,21.42
2018-12-27T02:03:46.876Z,21.37
2018-12-27T02:06:14.470Z,21.37
2018-12-27T02:08:43.841Z,21.37
2018-12-27T02:11:12.437Z,21.37
2018-12-27T02:13:42.378Z,21.38
2018-12-27T02:16:10.371Z,21.35
2018-12-27T02:18:39.673Z,21.32
2018-12-27T02:21:07.784Z,21.29
2018-12-27T02:23:36.695Z,21.30
2018-12-27T02:26:05.769Z,21.23
2018-12-27T02:28:33.827Z,21.15
2018-12-27T02:31:03.023Z,21.11
2018-12-27T02:33:35.347Z,21.17
2018-12-27T02:36:02.645Z,21.17
2018-12-27T02:38:32.251Z,21.17
2018-12-27T02:44:02.885Z,21.08
2018-12-27T02:46:31.521Z,21.15
2018-12-27T02:48:58.992Z,21.09
2018-12-27T02:51:26.337Z,21.07
2018-12-27T02:53:53.807Z,21.06
2018-12-27T02:56:21.836Z,21.10
2018-12-27T02:58:50.374Z,21.05
2018-12-27T03:01:19.349Z,21.04
2018-12-27T03:03:46.639Z,21.02
2018-12-27T03:06:15.372Z,20.98
2018-12-27T03:08:42.621Z,20.93
2018-12-27T03:11:09.995Z,21.07
2018-12-27T03:13:38.037Z,21.00
2018-12-27T03:16:05.715Z,21.04
2018-12-27T03:18:33.438Z,21.09
2018-12-27T03:21:01.320Z,21.06
2018-12-27T03:23:28.519Z,21.11
2018-12-27T03:25:56.832Z,21.04
2018-12-27T03:28:24.444Z,21.03
2018-12-27T03:30:52.049Z,21.03
2018-12-27T03:33:20.527Z,20.98
2018-12-27T03:35:48.487Z,20.94
2018-12-27T03:38:16.260Z,20.96
2018-12-27T03:40:43.784Z,21.03
2018-12-27T03:43:10.913Z,21.02
2018-12-27T03:45:39.006Z,21.00
2018-12-27T03:49:43.464Z,21.02
2018-12-27T03:52:11.029Z,20.33
2018-12-27T03:54:38.991Z,20.92
2018-12-27T03:57:06.801Z,20.95
2018-12-27T03:59:34.301Z,20.92
2018-12-27T04:02:01.975Z,20.91
2018-12-27T04:04:29.425Z,20.88
2018-12-27T04:06:56.811Z,21.00
2018-12-27T04:09:27.813Z,20.90
2018-12-27T04:11:56.123Z,20.93
2018-12-27T04:14:23.755Z,20.92
2018-12-27T04:16:51.527Z,20.93
2018-12-27T04:19:19.501Z,20.93
2018-12-27T04:21:47.617Z,20.90
2018-12-27T04:24:17.507Z,20.89
2018-12-27T04:26:45.035Z,20.90
2018-12-27T04:29:12.904Z,20.91
2018-12-27T04:31:40.870Z,20.83
2018-12-27T04:34:09.700Z,20.81
2018-12-27T04:36:37.946Z,20.81
2018-12-27T04:39:06.843Z,20.77
2018-12-27T04:41:35.336Z,20.86
2018-12-27T04:44:02.893Z,20.77
2018-12-27T04:46:30.336Z,20.80
2018-12-27T04:48:58.054Z,20.87
2018-12-27T04:51:26.070Z,20.84
2018-12-27T04:53:53.767Z,20.83
2018-12-27T04:56:20.735Z,20.84
2018-12-27T04:58:47.624Z,20.82
2018-12-27T05:01:15.352Z,20.79
2018-12-27T05:03:43.018Z,20.84
2018-12-27T05:06:10.469Z,20.87
2018-12-27T05:08:38.012Z,20.79
2018-12-27T05:11:05.975Z,20.81
2018-12-27T05:13:33.731Z,20.81
2018-12-27T05:16:01.899Z,20.78
2018-12-27T05:18:29.630Z,20.80
2018-12-27T05:20:57.428Z,20.80
2018-12-27T05:23:25.623Z,20.78
2018-12-27T05:25:53.819Z,20.68
2018-12-27T05:28:21.250Z,20.68
2018-12-27T05:30:48.504Z,20.74
2018-12-27T05:33:16.388Z,20.71
2018-12-27T05:35:43.992Z,20.71
2018-12-27T05:38:11.800Z,20.77
2018-12-27T05:40:39.250Z,20.78
2018-12-27T05:43:07.374Z,20.79
2018-12-27T05:45:34.843Z,20.72
2018-12-27T05:48:02.786Z,20.79
2018-12-27T05:50:29.723Z,20.75
2018-12-27T05:52:57.349Z,20.77
2018-12-27T05:55:24.620Z,20.78
2018-12-27T05:57:52.011Z,20.70
2018-12-27T06:00:19.937Z,20.75
2018-12-27T06:02:47.718Z,20.80
2018-12-27T06:05:14.956Z,20.74
2018-12-27T06:07:42.441Z,20.71
2018-12-27T06:10:09.799Z,20.77
2018-12-27T06:12:37.842Z,20.73
2018-12-27T06:15:05.709Z,20.75
2018-12-27T06:17:33.695Z,20.75
2018-12-27T06:20:00.723Z,20.76
2018-12-27T06:22:28.485Z,20.78
2018-12-27T06:24:56.446Z,20.79
2018-12-27T06:27:24.173Z,20.81
2018-12-27T06:29:51.435Z,20.80
2018-12-27T06:32:19.844Z,20.84
2018-12-27T06:34:47.835Z,20.80
2018-12-27T06:37:15.499Z,20.80
2018-12-27T06:39:43.966Z,20.81
2018-12-27T06:42:11.709Z,20.80
2018-12-27T06:44:38.890Z,20.77
2018-12-27T06:47:06.282Z,20.78
2018-12-27T06:49:33.513Z,20.78
2018-12-27T06:52:01.522Z,20.80
2018-12-27T06:54:29.254Z,20.84
2018-12-27T06:56:57.256Z,20.83
2018-12-27T06:59:24.829Z,20.84
2018-12-27T07:01:52.613Z,20.80
2018-12-27T07:04:21.105Z,20.80
2018-12-27T07:06:48.508Z,20.78
2018-12-27T07:09:16.528Z,20.83
2018-12-27T07:11:43.820Z,20.71
2018-12-27T07:14:12.371Z,20.76
2018-12-27T07:16:39.625Z,20.73
2018-12-27T07:19:07.407Z,20.80
2018-12-27T07:21:35.839Z,20.80
2018-12-27T07:24:03.730Z,20.82
2018-12-27T07:27:57.056Z,20.78
2018-12-27T07:30:24.405Z,20.87
2018-12-27T07:32:52.249Z,20.82
2018-12-27T07:35:19.498Z,20.85
2018-12-27T07:37:47.099Z,20.81
2018-12-27T07:40:14.749Z,20.78
2018-12-27T07:42:41.622Z,20.84
2018-12-27T07:45:09.465Z,20.80
2018-12-27T07:47:37.255Z,20.81
2018-12-27T07:50:05.750Z,20.84
2018-12-27T07:52:32.616Z,20.82
2018-12-27T07:54:59.970Z,20.84
2018-12-27T07:57:27.415Z,20.84
2018-12-27T07:59:55.051Z,20.83
2018-12-27T08:02:22.443Z,20.85
2018-12-27T08:04:49.816Z,20.87
2018-12-27T08:07:17.086Z,20.89
2018-12-27T08:09:44.805Z,20.90
2018-12-27T08:12:12.891Z,20.95
2018-12-27T08:14:40.341Z,20.94
2018-12-27T08:17:08.252Z,20.94
2018-12-27T08:19:35.505Z,20.95
2018-12-27T08:22:03.663Z,20.97
2018-12-27T08:24:31.349Z,21.03
2018-12-27T08:26:59.252Z,21.02
2018-12-27T08:29:26.804Z,20.99
2018-12-27T08:31:55.057Z,21.04
2018-12-27T08:34:22.611Z,21.05
2018-12-27T08:36:49.895Z,21.06
2018-12-27T08:39:17.435Z,21.07
2018-12-27T08:41:44.802Z,21.14
2018-12-27T08:44:12.287Z,21.16
2018-12-27T08:46:39.616Z,21.19
2018-12-27T08:49:06.728Z,21.15
2018-12-27T08:51:34.057Z,21.09
2018-12-27T08:54:01.446Z,21.17
2018-12-27T08:56:28.797Z,21.18
2018-12-27T08:58:55.815Z,21.17
2018-12-27T09:01:23.378Z,21.14
2018-12-27T09:03:50.888Z,21.10
2018-12-27T09:06:18.251Z,21.06
2018-12-27T09:08:45.607Z,21.06
2018-12-27T09:11:13.245Z,21.19
2018-12-27T09:13:40.518Z,21.10
2018-12-27T09:16:07.793Z,21.04
2018-12-27T09:18:34.701Z,20.92
2018-12-27T09:21:01.718Z,20.82
2018-12-27T09:23:28.612Z,20.95
2018-12-27T09:25:55.883Z,20.91
2018-12-27T09:28:23.538Z,20.92
2018-12-27T09:30:50.851Z,20.92
2018-12-27T09:33:18.461Z,20.96
2018-12-27T09:35:46.245Z,21.03
2018-12-27T09:38:15.732Z,21.03
2018-12-27T09:40:42.836Z,21.02
2018-12-27T09:43:10.249Z,21.11
2018-12-27T09:45:37.492Z,21.18
2018-12-27T09:48:04.802Z,21.18
2018-12-27T09:50:32.299Z,21.17
2018-12-27T09:52:59.610Z,21.17
2018-12-27T09:55:27.247Z,21.12
2018-12-27T09:57:54.734Z,21.07
2018-12-27T10:00:21.637Z,21.20
2018-12-27T10:02:48.919Z,21.14
2018-12-27T10:05:16.244Z,21.11
2018-12-27T10:07:43.703Z,21.13
2018-12-27T10:10:10.837Z,21.20
2018-12-27T10:12:38.247Z,21.21
2018-12-27T10:15:07.767Z,21.19
2018-12-27T10:17:34.690Z,21.18
2018-12-27T10:20:01.733Z,20.46
2018-12-27T10:22:29.624Z,19.89
2018-12-27T10:24:57.488Z,19.66
2018-12-27T10:27:25.254Z,19.95
2018-12-27T10:29:53.442Z,20.06
2018-12-27T10:32:20.838Z,20.14
2018-12-27T10:34:48.241Z,20.07
2018-12-27T10:37:15.998Z,20.02
2018-12-27T10:39:43.396Z,19.97
2018-12-27T10:42:11.258Z,19.85
2018-12-27T10:44:38.826Z,18.89
2018-12-27T10:47:06.488Z,19.67
2018-12-27T10:49:34.819Z,19.97
2018-12-27T10:52:02.504Z,20.15
2018-12-27T10:54:29.799Z,20.23
2018-12-27T10:56:57.492Z,20.27
2018-12-27T10:59:25.108Z,20.50
2018-12-27T11:01:52.721Z,20.47
2018-12-27T11:04:19.750Z,20.45
2018-12-27T11:06:46.610Z,20.46
2018-12-27T11:09:14.252Z,20.39
2018-12-27T11:11:41.485Z,20.48
2018-12-27T11:14:08.771Z,20.51
2018-12-27T11:16:35.725Z,20.54
2018-12-27T11:19:04.248Z,20.66
2018-12-27T11:21:32.354Z,20.65
2018-12-27T11:23:59.709Z,20.69
2018-12-27T11:26:26.696Z,20.60
2018-12-27T11:28:53.820Z,20.76
2018-12-27T11:31:21.461Z,20.73
2018-12-27T11:33:48.800Z,20.77
2018-12-27T11:36:17.364Z,20.84
2018-12-27T11:38:44.755Z,20.81
2018-12-27T11:41:13.430Z,20.89
2018-12-27T11:43:40.831Z,20.91
2018-12-27T11:46:08.331Z,20.87
2018-12-27T11:48:36.365Z,20.87
2018-12-27T11:51:03.983Z,20.85
2018-12-27T11:53:31.486Z,20.91
2018-12-27T11:55:58.924Z,20.93
2018-12-27T11:58:26.758Z,21.01
2018-12-27T12:00:55.240Z,21.10
2018-12-27T12:03:22.597Z,21.07
2018-12-27T12:05:50.393Z,21.13
2018-12-27T12:08:18.423Z,21.18
2018-12-27T12:10:45.780Z,21.17
2018-12-27T12:13:13.597Z,21.28
2018-12-27T12:15:41.896Z,21.31
2018-12-27T12:18:09.445Z,21.31
2018-12-27T12:20:37.239Z,21.42
2018-12-27T12:23:04.603Z,21.47
2018-12-27T12:25:32.752Z,21.50
2018-12-27T12:27:59.840Z,21.47
2018-12-27T12:30:27.337Z,21.38
2018-12-27T12:32:54.969Z,21.38
2018-12-27T12:35:23.541Z,21.45
2018-12-27T12:37:50.866Z,21.42
2018-12-27T12:40:18.331Z,21.44
2018-12-27T12:42:46.247Z,21.44
2018-12-27T12:45:14.773Z,21.42
2018-12-27T12:47:42.474Z,21.48
2018-12-27T12:50:09.877Z,21.52
2018-12-27T12:52:39.243Z,21.60
2018-12-27T12:55:06.981Z,21.60
2018-12-27T12:57:34.334Z,21.63
2018-12-27T13:00:01.721Z,21.83
2018-12-27T13:02:29.596Z,21.80
2018-12-27T13:04:57.530Z,21.70
2018-12-27T13:07:25.428Z,21.73
2018-12-27T13:09:53.958Z,21.71
2018-12-27T13:12:21.411Z,21.65
2018-12-27T13:14:49.243Z,21.68
2018-12-27T13:17:16.789Z,21.65
2018-12-27T13:19:43.866Z,21.66
2018-12-27T13:22:11.338Z,21.72
2018-12-27T13:24:38.892Z,21.72
2018-12-27T13:27:06.552Z,21.78
2018-12-27T13:29:34.263Z,21.70
2018-12-27T13:32:02.491Z,21.46
2018-12-27T13:34:29.937Z,21.77
2018-12-27T13:36:57.906Z,21.87
2018-12-27T13:39:25.342Z,21.91
2018-12-27T13:41:52.706Z,21.93
2018-12-27T13:44:20.477Z,21.93
2018-12-27T13:46:47.778Z,21.97
2018-12-27T13:49:15.236Z,21.97
2018-12-27T13:53:14.335Z,22.07
2018-12-27T13:55:41.593Z,22.14
2018-12-27T13:58:09.327Z,22.06
2018-12-27T14:00:36.792Z,22.14
2018-12-27T14:03:03.795Z,22.15
2018-12-27T14:05:31.480Z,22.11
2018-12-27T14:07:59.331Z,22.00
2018-12-27T14:10:26.597Z,21.91
2018-12-27T14:12:53.974Z,21.81
2018-12-27T14:15:21.921Z,21.81
2018-12-27T14:17:49.608Z,21.84
2018-12-27T14:20:17.456Z,21.82
2018-12-27T14:26:16.824Z,21.87
2018-12-27T14:28:44.499Z,21.76
2018-12-27T14:31:11.923Z,21.76
2018-12-27T14:33:39.706Z,21.74
2018-12-27T14:36:06.599Z,21.77
2018-12-27T14:38:33.875Z,21.80
2018-12-27T14:41:01.394Z,21.82
2018-12-27T14:43:29.403Z,21.78
2018-12-27T14:45:56.870Z,21.80
2018-12-27T14:48:24.339Z,21.72
2018-12-27T14:50:52.240Z,21.72
2018-12-27T14:53:19.802Z,21.71
2018-12-27T14:55:48.457Z,21.70
2018-12-27T14:58:16.233Z,21.70
2018-12-27T15:00:43.784Z,21.66
2018-12-27T15:03:11.570Z,21.66
2018-12-27T15:05:38.888Z,21.62
2018-12-27T15:08:06.356Z,21.65
2018-12-27T15:10:33.646Z,21.61
2018-12-27T15:13:00.970Z,21.60
2018-12-27T15:15:28.293Z,21.64
2018-12-27T15:17:55.872Z,21.55
2018-12-27T15:20:23.262Z,21.63
2018-12-27T15:22:51.451Z,21.63
2018-12-27T15:25:19.013Z,21.59
2018-12-27T15:27:47.869Z,21.56
2018-12-27T15:30:15.481Z,21.52
2018-12-27T15:32:43.505Z,21.52
2018-12-27T15:35:10.699Z,21.58
2018-12-27T15:37:38.104Z,21.52
2018-12-27T15:40:05.746Z,21.52
2018-12-27T15:42:33.243Z,21.54
2018-12-27T15:45:00.971Z,21.51
2018-12-27T15:47:29.061Z,21.54
2018-12-27T15:49:56.892Z,21.54
2018-12-27T15:52:24.498Z,21.54
2018-12-27T15:54:51.827Z,21.56
2018-12-27T15:57:19.710Z,21.56
2018-12-27T15:59:47.707Z,21.47
2018-12-27T16:02:14.842Z,21.45
2018-12-27T16:04:42.880Z,21.37
2018-12-27T16:07:10.601Z,21.43
2018-12-27T16:09:38.337Z,21.43
2018-12-27T16:12:06.795Z,21.39
2018-12-27T16:14:36.003Z,21.40
2018-12-27T16:17:03.808Z,21.46
2018-12-27T16:19:31.678Z,21.02
2018-12-27T16:21:58.840Z,21.43
2018-12-27T16:24:26.801Z,21.23
2018-12-27T16:26:54.612Z,21.23
2018-12-27T16:29:21.887Z,21.31
2018-12-27T16:31:49.521Z,21.28
2018-12-27T16:34:16.840Z,21.33
2018-12-27T16:36:44.607Z,21.32
2018-12-27T16:39:12.440Z,21.32
2018-12-27T16:41:39.804Z,21.30
2018-12-27T16:44:07.344Z,21.30
2018-12-27T16:46:34.889Z,21.38
2018-12-27T16:49:03.386Z,21.30
2018-12-27T16:51:30.697Z,21.30
2018-12-27T16:53:58.021Z,21.28
2018-12-27T16:56:25.844Z,21.31
2018-12-27T16:58:53.750Z,21.37
2018-12-27T17:01:20.936Z,21.37
2018-12-27T17:03:48.915Z,21.34
2018-12-27T17:06:16.881Z,21.38
2018-12-27T17:08:46.330Z,21.42
2018-12-27T17:11:13.915Z,21.42
2018-12-27T17:13:41.620Z,21.45
2018-12-27T17:16:09.240Z,21.38
2018-12-27T17:18:36.781Z,21.44
2018-12-27T17:21:04.247Z,21.38
2018-12-27T17:23:31.519Z,21.47
2018-12-27T17:25:59.504Z,21.45
2018-12-27T17:28:27.239Z,21.53
2018-12-27T17:30:54.545Z,21.50
2018-12-27T17:33:22.474Z,21.45
2018-12-27T17:35:50.238Z,21.51
2018-12-27T17:38:17.599Z,21.47
2018-12-27T17:40:44.893Z,21.47
2018-12-27T17:43:13.439Z,21.47
2018-12-27T17:45:41.101Z,21.46
2018-12-27T17:48:09.109Z,21.38
2018-12-27T17:50:36.505Z,21.45
2018-12-27T17:53:04.113Z,21.38
2018-12-27T17:55:31.457Z,21.37
2018-12-27T17:57:58.927Z,21.41
2018-12-27T18:00:26.337Z,21.36
2018-12-27T18:02:53.797Z,21.35
2018-12-27T18:05:24.252Z,21.34
2018-12-27T18:07:51.733Z,21.40
2018-12-27T18:10:18.994Z,21.38
2018-12-27T18:12:46.800Z,21.42
2018-12-27T18:15:20.251Z,21.38
2018-12-27T18:17:47.488Z,21.35
2018-12-27T18:20:15.215Z,21.39
2018-12-27T18:22:42.608Z,21.33
2018-12-27T18:25:09.875Z,21.28
2018-12-27T18:27:37.504Z,21.31
2018-12-27T18:30:05.877Z,21.31
2018-12-27T18:32:33.452Z,21.28
2018-12-27T18:35:00.894Z,21.28
2018-12-27T18:37:28.399Z,21.23
2018-12-27T18:39:55.720Z,21.23
2018-12-27T18:42:23.453Z,21.28
2018-12-27T18:44:50.950Z,21.33
2018-12-27T18:47:18.320Z,21.38
2018-12-27T18:49:45.608Z,21.39
2018-12-27T18:52:13.727Z,21.36
2018-12-27T18:54:40.615Z,21.36
2018-12-27T18:57:08.255Z,21.42
2018-12-27T18:59:35.606Z,21.42
2018-12-27T19:02:03.248Z,21.42
2018-12-27T19:04:30.506Z,21.44
2018-12-27T19:06:58.360Z,21.41
2018-12-27T19:09:25.725Z,21.47
2018-12-27T19:12:54.062Z,21.40
2018-12-27T19:15:24.982Z,21.44
2018-12-27T19:18:13.457Z,21.45
2018-12-27T19:20:42.405Z,21.42
2018-12-27T19:23:17.757Z,21.39
2018-12-27T19:25:44.605Z,21.38
2018-12-27T19:28:12.241Z,21.39
2018-12-27T19:30:40.454Z,21.40
2018-12-27T19:33:08.267Z,21.41
2018-12-27T19:35:35.501Z,21.37
2018-12-27T19:38:03.402Z,21.38
2018-12-27T19:40:30.725Z,21.41
2018-12-27T19:42:57.900Z,21.42
2018-12-27T19:45:25.493Z,21.47
2018-12-27T19:47:53.245Z,21.47
2018-12-27T19:50:20.784Z,21.44
2018-12-27T19:52:47.744Z,21.49
2018-12-27T19:55:15.606Z,21.45
2018-12-27T19:57:43.437Z,21.45
2018-12-27T20:00:10.871Z,21.44
2018-12-27T20:02:38.455Z,21.51
2018-12-27T20:05:05.954Z,21.57
2018-12-27T20:07:33.615Z,21.53
2018-12-27T20:10:00.924Z,21.52
2018-12-27T20:12:28.335Z,21.52
2018-12-27T20:14:57.099Z,21.57
2018-12-27T20:17:24.779Z,21.58
2018-12-27T20:19:52.702Z,21.56
2018-12-27T20:22:19.606Z,21.47
2018-12-27T20:24:47.245Z,21.44
2018-12-27T20:27:14.746Z,21.56
2018-12-27T20:29:42.045Z,21.56
2018-12-27T20:32:10.243Z,21.56
2018-12-27T20:34:37.868Z,21.58
2018-12-27T20:37:05.310Z,21.58
2018-12-27T20:39:32.487Z,21.58
2018-12-27T20:41:59.796Z,21.59
2018-12-27T20:44:27.425Z,21.61
2018-12-27T20:46:55.008Z,21.65
2018-12-27T20:49:22.405Z,21.65
2018-12-27T20:53:50.790Z,21.76
2018-12-27T20:56:18.569Z,21.75
2018-12-27T20:58:46.388Z,21.80
2018-12-27T21:01:13.724Z,21.86
2018-12-27T21:03:41.427Z,21.91
2018-12-27T21:06:09.605Z,21.96
2018-12-27T21:08:36.895Z,21.87
2018-12-27T21:11:04.726Z,21.86
2018-12-27T21:13:31.733Z,21.86
2018-12-27T21:15:58.800Z,21.86
2018-12-27T21:18:26.378Z,21.85
2018-12-27T21:20:53.907Z,21.87
2018-12-27T21:23:21.846Z,21.86
2018-12-27T21:25:49.892Z,21.88
2018-12-27T21:30:58.713Z,21.93
2018-12-27T21:33:25.728Z,21.92
2018-12-27T21:35:52.914Z,21.97
2018-12-27T21:38:21.517Z,21.93
2018-12-27T21:40:49.468Z,21.99
2018-12-27T21:43:17.240Z,21.99
2018-12-27T21:45:44.607Z,22.21
2018-12-27T21:48:11.945Z,22.12
2018-12-27T21:50:39.386Z,22.05
2018-12-27T21:53:06.699Z,22.01
2018-12-27T21:55:33.599Z,22.03
2018-12-27T21:58:00.696Z,22.12
2018-12-27T22:00:29.993Z,22.10
2018-12-27T22:02:57.453Z,22.11
2018-12-27T22:05:24.798Z,22.03
2018-12-27T22:07:52.718Z,22.08
2018-12-27T22:10:19.884Z,22.08
2018-12-27T22:12:47.723Z,22.15
2018-12-27T22:15:14.707Z,22.15
2018-12-27T22:17:42.432Z,22.05
2018-12-27T22:20:10.239Z,22.07
2018-12-27T22:22:37.879Z,22.04
2018-12-27T22:25:05.513Z,22.07
2018-12-27T22:27:32.986Z,22.07
2018-12-27T22:30:00.622Z,22.24
2018-12-27T22:32:28.791Z,22.13
2018-12-27T22:34:56.932Z,22.19
2018-12-27T22:37:24.392Z,22.28
2018-12-27T22:39:52.106Z,22.31
2018-12-27T22:42:19.878Z,22.27
2018-12-27T22:44:47.411Z,22.18
2018-12-27T22:47:14.772Z,22.13
2018-12-27T22:49:45.611Z,22.18
2018-12-27T22:52:12.957Z,22.14
2018-12-27T22:54:40.993Z,22.11
2018-12-27T22:57:08.757Z,22.03
2018-12-27T22:59:35.878Z,22.05
2018-12-27T23:02:03.781Z,22.08
2018-12-27T23:04:31.472Z,22.07
2018-12-27T23:06:59.032Z,22.07
2018-12-27T23:09:27.430Z,22.08
2018-12-27T23:11:54.849Z,22.08
2018-12-27T23:14:22.807Z,22.05
2018-12-27T23:16:50.230Z,22.08
2018-12-27T23:19:17.991Z,22.02
2018-12-27T23:21:45.712Z,22.01
2018-12-27T23:24:13.098Z,22.00
2018-12-27T23:26:40.488Z,22.02
2018-12-27T23:29:07.943Z,22.09
2018-12-27T23:31:35.312Z,21.96
2018-12-27T23:34:03.015Z,22.08
2018-12-27T23:36:30.489Z,22.03
2018-12-27T23:38:58.328Z,22.04
2018-12-27T23:41:25.703Z,22.10
2018-12-27T23:43:52.604Z,22.11
2018-12-27T23:46:19.880Z,22.10
2018-12-27T23:48:47.597Z,22.11
2018-12-27T23:51:14.893Z,22.14
2018-12-27T23:53:42.240Z,22.10
2018-12-27T23:56:09.832Z,22.10
2018-12-27T23:58:37.793Z,22.07
